Terminal Aerodrome Forecast
Issued by NWS Des Moines, IA

Home | Current Version | Previous Version | Text Only | Print | Product List | Glossary On
Versions: 1 2 3 4 5 6 7 8 9 10 11 12 13 14 15 16 17 18 19 20 21 22 23 24 25 26 27
000
FTUS43 KDMX 221120
TAFDSM
TAF
KDSM 221120Z 2212/2312 12008KT P6SM BKN060
     FM221400 14011KT P6SM VCSH BKN050
     FM221700 16013G20KT P6SM BKN070 BKN200
     FM230000 15009KT P6SM BKN040
     FM230500 15009KT 6SM -SHRA OVC030
     FM231000 16007KT 5SM -RA BR OVC020=

USA.gov is the U.S. government's official web portal to all federal, state and local government web resources and services.